createdAt,value
2022-11-18T00:01:31.932Z,59.88
2022-11-18T00:04:00.343Z,59.79
2022-11-18T00:06:30.273Z,59.53
2022-11-18T00:09:00.727Z,59.54
2022-11-18T00:11:48.430Z,59.54
2022-11-18T00:14:23.573Z,59.62
2022-11-18T00:17:03.478Z,59.91
2022-11-18T00:19:39.960Z,60.04
2022-11-18T00:22:12.673Z,60.23
2022-11-18T00:24:41.046Z,60.46
2022-11-18T00:27:09.396Z,60.56
2022-11-18T00:29:38.055Z,60.57
2022-11-18T00:32:06.403Z,60.61
2022-11-18T00:34:34.885Z,60.71
2022-11-18T00:37:03.417Z,60.77
2022-11-18T00:39:31.972Z,60.96
2022-11-18T00:42:21.159Z,61.04
2022-11-18T00:44:49.533Z,61.08
2022-11-18T00:47:17.863Z,61.11
2022-11-18T00:49:46.168Z,61.10
2022-11-18T00:52:14.702Z,61.17
2022-11-18T00:54:42.973Z,61.16
2022-11-18T00:57:11.476Z,61.04
2022-11-18T00:59:39.721Z,61.09
2022-11-18T01:02:08.120Z,60.86
2022-11-18T01:04:36.477Z,60.78
2022-11-18T01:07:04.862Z,60.71
2022-11-18T01:09:33.465Z,60.74
2022-11-18T01:12:20.943Z,60.84
2022-11-18T01:14:49.353Z,60.83
2022-11-18T01:17:17.620Z,60.73
2022-11-18T01:19:46.225Z,60.64
2022-11-18T01:22:14.496Z,60.44
2022-11-18T01:24:42.878Z,60.30
2022-11-18T01:27:11.121Z,60.27
2022-11-18T01:29:39.359Z,60.36
2022-11-18T01:32:24.893Z,60.42
2022-11-18T01:34:53.847Z,60.46
2022-11-18T01:37:22.669Z,60.52
2022-11-18T01:39:50.986Z,60.78
2022-11-18T01:42:19.777Z,60.73
2022-11-18T01:45:10.140Z,60.47
2022-11-18T01:47:44.837Z,60.22
2022-11-18T01:50:14.878Z,60.05
2022-11-18T01:52:47.422Z,60.20
2022-11-18T01:55:27.599Z,60.26
2022-11-18T01:58:07.851Z,60.33
2022-11-18T02:00:37.105Z,60.47
2022-11-18T02:03:06.408Z,60.43
2022-11-18T02:05:36.323Z,60.56
2022-11-18T02:08:07.851Z,60.80
2022-11-18T02:10:36.186Z,60.73
2022-11-18T02:13:04.920Z,60.72
2022-11-18T02:15:42.379Z,60.68
2022-11-18T02:18:24.179Z,60.66
2022-11-18T02:21:01.117Z,60.66
2022-11-18T02:24:00.496Z,60.61
2022-11-18T02:26:39.165Z,60.16
2022-11-18T02:29:17.253Z,60.03
2022-11-18T02:31:53.882Z,60.00
2022-11-18T02:34:49.723Z,60.06
2022-11-18T02:37:27.201Z,60.40
2022-11-18T02:40:14.744Z,60.69
2022-11-18T02:42:50.347Z,60.97
2022-11-18T02:45:21.386Z,61.22
2022-11-18T02:47:51.758Z,61.29
2022-11-18T02:50:25.475Z,61.20
2022-11-18T02:52:58.437Z,61.07
2022-11-18T02:55:30.909Z,61.01
2022-11-18T02:58:01.507Z,60.97
2022-11-18T03:00:30.724Z,60.72
2022-11-18T03:02:59.090Z,60.25
2022-11-18T03:05:43.275Z,60.02
2022-11-18T03:08:17.852Z,59.93
2022-11-18T03:11:11.615Z,59.86
2022-11-18T03:14:14.223Z,59.40
2022-11-18T03:17:02.605Z,58.83
2022-11-18T03:19:52.989Z,58.57
2022-11-18T03:22:33.485Z,58.78
2022-11-18T03:25:14.472Z,59.00
2022-11-18T03:28:05.476Z,58.91
2022-11-18T03:30:37.440Z,58.63
2022-11-18T03:33:11.810Z,58.18
2022-11-18T03:35:43.561Z,57.89
2022-11-18T03:38:21.648Z,57.75
2022-11-18T03:40:55.239Z,57.31
2022-11-18T03:43:27.608Z,57.27
2022-11-18T03:45:59.121Z,57.29
2022-11-18T03:48:32.231Z,57.41
2022-11-18T03:51:14.764Z,57.34
2022-11-18T03:53:52.193Z,57.34
2022-11-18T03:56:24.839Z,57.38
2022-11-18T03:59:13.197Z,57.53
2022-11-18T04:01:52.823Z,57.54
2022-11-18T04:04:24.060Z,57.37
2022-11-18T04:07:04.608Z,57.37
2022-11-18T04:09:41.851Z,57.16
2022-11-18T04:12:18.277Z,56.85
2022-11-18T04:14:55.681Z,56.77
2022-11-18T04:17:27.742Z,56.66
2022-11-18T04:19:56.433Z,56.42
2022-11-18T04:22:24.691Z,56.33
2022-11-18T04:24:52.941Z,56.23
2022-11-18T04:27:21.394Z,56.15
2022-11-18T04:29:49.661Z,55.99
2022-11-18T04:32:17.925Z,56.01
2022-11-18T04:34:46.652Z,56.33
2022-11-18T04:37:15.096Z,56.39
2022-11-18T04:39:43.342Z,56.60
2022-11-18T04:42:11.684Z,56.82
2022-11-18T04:44:39.980Z,57.02
2022-11-18T04:47:08.331Z,56.92
